Time;durP1;ratioP1;P1;durP2;ratioP2;P2;SDS_P1;SDS_P2;PMS_P1;PMS_P2;Temp;Humidity;BMP_temperature;BMP_pressure;BME280_temperature;BME280_humidity;BME280_pressure;Samples;Min_cycle;Max_cycle;Signal;HPM_P1;HPM_P2
2023/08/16 00:01:37;;;;;;;3.93;3.63;;;21.80;99.90;;;;;;5050776;28;20212;-54
2023/08/16 00:04:06;;;;;;;3.73;3.53;;;21.80;99.90;;;;;;5042740;28;20218;-53
2023/08/16 00:06:33;;;;;;;3.67;3.37;;;21.80;99.90;;;;;;5050029;28;20221;-53
2023/08/16 00:09:00;;;;;;;3.47;3.27;;;21.80;99.90;;;;;;5050197;28;20259;-53
2023/08/16 00:11:27;;;;;;;3.33;3.13;;;21.80;99.90;;;;;;5050060;28;20201;-53
2023/08/16 00:13:54;;;;;;;3.63;3.43;;;21.80;99.90;;;;;;5042350;28;20711;-53
2023/08/16 00:16:21;;;;;;;2.77;2.57;;;21.70;99.90;;;;;;5050193;28;20255;-53
2023/08/16 00:18:48;;;;;;;3.03;2.83;;;21.70;99.90;;;;;;5044521;28;20292;-53
2023/08/16 00:21:16;;;;;;;2.90;2.80;;;21.70;99.90;;;;;;5046911;28;20255;-53
2023/08/16 00:23:43;;;;;;;3.53;3.23;;;21.70;99.90;;;;;;5048806;28;20226;-53
2023/08/16 00:26:10;;;;;;;3.37;3.17;;;21.60;99.90;;;;;;5030780;28;20635;-53
2023/08/16 00:28:37;;;;;;;4.73;2.93;;;21.60;99.90;;;;;;5031277;28;20358;-53
2023/08/16 00:31:04;;;;;;;3.60;3.40;;;21.50;99.90;;;;;;5047900;28;20205;-53
2023/08/16 00:33:31;;;;;;;3.63;3.43;;;21.50;99.90;;;;;;5042437;28;20260;-53
2023/08/16 00:35:58;;;;;;;3.80;3.60;;;21.40;99.90;;;;;;5048007;28;20198;-53
2023/08/16 00:38:26;;;;;;;3.43;3.23;;;21.40;99.90;;;;;;5050481;28;20197;-53
2023/08/16 00:40:53;;;;;;;3.20;3.10;;;21.40;99.90;;;;;;5050774;28;20301;-53
2023/08/16 00:43:20;;;;;;;2.27;2.17;;;21.30;99.90;;;;;;5044192;28;20197;-53
2023/08/16 00:45:49;;;;;;;3.47;3.20;;;21.30;99.90;;;;;;5045462;28;20249;-53
2023/08/16 00:48:17;;;;;;;3.70;3.40;;;21.40;99.90;;;;;;5050554;28;20251;-53
2023/08/16 00:50:45;;;;;;;2.87;2.70;;;21.30;99.90;;;;;;5050396;28;20628;-53
2023/08/16 00:53:15;;;;;;;3.97;3.77;;;21.30;99.90;;;;;;5045058;28;20202;-53
2023/08/16 00:55:43;;;;;;;2.97;2.60;;;21.30;99.90;;;;;;5046604;28;20676;-53
2023/08/16 00:58:10;;;;;;;3.53;2.93;;;21.30;99.90;;;;;;5049561;28;20197;-53
2023/08/16 01:00:37;;;;;;;3.60;3.30;;;21.20;99.90;;;;;;5049489;28;20217;-53
2023/08/16 01:03:05;;;;;;;3.30;3.10;;;21.20;99.90;;;;;;5049482;28;20194;-53
2023/08/16 01:05:33;;;;;;;4.53;4.13;;;21.20;99.90;;;;;;5050047;28;20214;-53
2023/08/16 01:08:00;;;;;;;3.40;3.10;;;21.10;99.90;;;;;;5048965;28;20260;-53
2023/08/16 01:10:36;;;;;;;3.50;3.30;;;21.10;99.90;;;;;;5049665;28;20201;-53
2023/08/16 01:13:10;;;;;;;3.30;3.00;;;21.00;99.90;;;;;;5050320;28;20247;-53
2023/08/16 01:15:42;;;;;;;3.97;3.70;;;21.00;99.90;;;;;;5046573;28;20222;-53
2023/08/16 01:18:10;;;;;;;3.40;3.30;;;21.00;99.90;;;;;;5051083;28;20281;-52
2023/08/16 01:20:38;;;;;;;3.77;3.53;;;20.90;99.90;;;;;;5049080;28;20201;-53
2023/08/16 01:23:07;;;;;;;4.00;3.80;;;20.90;99.90;;;;;;5053691;28;20598;-53
2023/08/16 01:25:44;;;;;;;3.73;3.53;;;20.90;99.90;;;;;;5053028;28;20317;-53
2023/08/16 01:28:13;;;;;;;3.57;3.27;;;20.90;99.90;;;;;;5052051;28;20247;-52
2023/08/16 01:30:40;;;;;;;3.57;3.27;;;20.90;99.90;;;;;;5052890;28;20263;-53
2023/08/16 01:33:08;;;;;;;3.73;3.50;;;20.90;99.90;;;;;;5051983;28;20289;-53
2023/08/16 01:35:36;;;;;;;3.13;2.93;;;20.90;99.90;;;;;;5054143;28;20210;-52
2023/08/16 01:38:08;;;;;;;2.90;2.70;;;20.80;99.90;;;;;;5051874;28;20260;-53
2023/08/16 01:40:38;;;;;;;4.07;3.77;;;20.80;99.90;;;;;;5052889;28;20202;-52
2023/08/16 01:43:08;;;;;;;3.20;3.00;;;20.80;99.90;;;;;;5053606;28;20198;-53
2023/08/16 01:45:37;;;;;;;6.40;2.97;;;20.80;99.90;;;;;;5054034;28;20221;-53
2023/08/16 01:48:07;;;;;;;3.33;3.23;;;20.70;99.90;;;;;;5044584;28;20198;-53
2023/08/16 01:50:35;;;;;;;4.17;3.87;;;20.60;99.90;;;;;;5052750;28;20281;-53
2023/08/16 01:53:04;;;;;;;2.83;2.63;;;20.60;99.90;;;;;;5053315;28;20193;-53
2023/08/16 01:55:31;;;;;;;3.83;3.50;;;20.50;99.90;;;;;;5053485;28;20789;-53
2023/08/16 01:58:02;;;;;;;2.97;2.80;;;20.50;99.90;;;;;;5044444;28;20207;-53
2023/08/16 02:00:29;;;;;;;3.60;3.40;;;20.50;99.90;;;;;;5052257;28;20654;-53
2023/08/16 02:02:57;;;;;;;3.97;3.60;;;20.50;99.90;;;;;;5053157;28;20194;-52
2023/08/16 02:05:24;;;;;;;3.17;3.03;;;20.50;99.90;;;;;;5053423;28;20272;-53
2023/08/16 02:07:51;;;;;;;3.30;3.20;;;20.50;99.90;;;;;;5051446;28;20198;-52
2023/08/16 02:10:19;;;;;;;2.93;2.77;;;20.50;99.90;;;;;;5052241;28;20197;-53
2023/08/16 02:12:46;;;;;;;3.37;3.17;;;20.50;99.90;;;;;;5052818;28;20194;-53
2023/08/16 02:15:13;;;;;;;3.10;3.00;;;20.60;99.90;;;;;;5053186;28;20221;-53
2023/08/16 02:17:40;;;;;;;3.93;3.50;;;20.50;99.90;;;;;;5044373;28;20587;-53
2023/08/16 02:20:12;;;;;;;2.93;2.83;;;20.50;99.90;;;;;;5051658;28;20202;-52
2023/08/16 02:22:39;;;;;;;3.20;3.00;;;20.50;99.90;;;;;;5052775;28;20293;-53
2023/08/16 02:25:07;;;;;;;3.20;3.00;;;20.50;99.90;;;;;;5052824;28;20671;-53
2023/08/16 02:27:34;;;;;;;3.80;3.60;;;20.40;99.90;;;;;;5052385;28;20314;-53
2023/08/16 02:30:01;;;;;;;3.20;3.10;;;20.40;99.90;;;;;;5050668;28;20630;-53
2023/08/16 02:32:28;;;;;;;3.00;2.90;;;20.40;99.90;;;;;;5052471;28;20741;-53
2023/08/16 02:34:55;;;;;;;3.07;2.80;;;20.30;99.90;;;;;;5052928;28;20222;-53
2023/08/16 02:37:24;;;;;;;3.07;2.90;;;20.30;99.90;;;;;;5052346;28;20202;-53
2023/08/16 02:39:51;;;;;;;3.53;3.23;;;20.30;99.90;;;;;;5051860;28;20252;-53
2023/08/16 02:42:18;;;;;;;3.43;2.90;;;20.30;99.90;;;;;;5052417;28;20277;-53
2023/08/16 02:44:46;;;;;;;3.43;3.23;;;20.20;99.90;;;;;;5052730;28;20268;-53
2023/08/16 02:47:12;;;;;;;3.40;3.17;;;20.20;99.90;;;;;;5044375;28;20309;-53
2023/08/16 02:49:39;;;;;;;3.70;3.40;;;20.20;99.90;;;;;;5051963;28;20267;-54
2023/08/16 02:52:06;;;;;;;2.70;2.60;;;20.20;99.90;;;;;;5052645;28;20664;-53
2023/08/16 02:54:35;;;;;;;3.50;3.20;;;20.20;99.90;;;;;;5053212;28;20667;-53
2023/08/16 02:57:02;;;;;;;3.93;3.13;;;20.20;99.90;;;;;;5049627;28;20652;-53
2023/08/16 02:59:39;;;;;;;2.53;2.47;;;20.10;99.90;;;;;;5047031;28;20202;-52
2023/08/16 03:02:06;;;;;;;3.93;3.40;;;20.10;99.90;;;;;;5051390;28;20574;-53
2023/08/16 03:04:32;;;;;;;3.27;3.07;;;20.10;99.90;;;;;;5052920;28;20278;-53
2023/08/16 03:06:59;;;;;;;3.97;3.67;;;20.20;99.90;;;;;;5051894;28;20272;-53
2023/08/16 03:09:27;;;;;;;3.13;2.93;;;20.20;99.90;;;;;;5052869;28;20198;-53
2023/08/16 03:11:55;;;;;;;2.90;2.80;;;20.20;99.90;;;;;;5050608;28;20210;-53
2023/08/16 03:14:22;;;;;;;6.13;3.37;;;20.20;99.90;;;;;;5052238;28;20221;-53
2023/08/16 03:16:49;;;;;;;3.67;3.30;;;20.10;99.90;;;;;;5050271;28;20190;-53
2023/08/16 03:19:16;;;;;;;2.87;2.53;;;20.20;99.90;;;;;;5051384;28;20288;-53
2023/08/16 03:21:43;;;;;;;4.63;3.00;;;20.20;99.90;;;;;;5052402;28;20201;-54
2023/08/16 03:24:10;;;;;;;2.83;2.63;;;20.20;99.90;;;;;;5052285;28;20295;-53
2023/08/16 03:26:37;;;;;;;3.57;3.37;;;20.20;99.90;;;;;;5051409;28;20213;-53
2023/08/16 03:29:06;;;;;;;4.07;3.77;;;20.10;99.90;;;;;;5043240;28;20607;-52
2023/08/16 03:31:33;;;;;;;3.50;3.23;;;20.10;99.90;;;;;;5051857;28;20501;-53
2023/08/16 03:34:00;;;;;;;5.13;3.43;;;20.10;99.90;;;;;;5051837;28;20857;-53
2023/08/16 03:36:27;;;;;;;3.97;3.70;;;20.00;99.90;;;;;;5051810;28;20236;-53
2023/08/16 03:38:54;;;;;;;3.63;3.30;;;20.00;99.90;;;;;;5051204;28;20271;-52
2023/08/16 03:41:21;;;;;;;3.10;3.00;;;20.00;99.90;;;;;;5051748;28;20248;-53
2023/08/16 03:43:48;;;;;;;3.33;3.03;;;20.00;99.90;;;;;;5051703;28;20647;-53
2023/08/16 03:46:16;;;;;;;2.73;2.57;;;20.00;99.90;;;;;;5051347;28;20225;-53
2023/08/16 03:48:43;;;;;;;2.80;2.60;;;20.00;99.90;;;;;;5043656;28;20198;-53
2023/08/16 03:51:10;;;;;;;3.77;3.30;;;19.90;99.90;;;;;;5050901;28;20551;-53
2023/08/16 03:53:37;;;;;;;4.20;3.57;;;20.00;99.90;;;;;;5050775;28;20225;-52
2023/08/16 03:56:04;;;;;;;3.50;3.13;;;20.00;99.90;;;;;;5052060;28;20206;-53
2023/08/16 03:58:31;;;;;;;3.03;2.20;;;19.90;99.90;;;;;;5047075;28;20251;-53
2023/08/16 04:00:58;;;;;;;3.27;3.00;;;19.90;99.90;;;;;;5050112;28;20917;-53
2023/08/16 04:03:26;;;;;;;2.97;2.80;;;19.90;99.90;;;;;;5051096;28;20205;-53
2023/08/16 04:05:53;;;;;;;2.93;2.67;;;19.80;99.90;;;;;;5051520;28;20335;-53
2023/08/16 04:08:20;;;;;;;3.57;3.07;;;19.80;99.90;;;;;;5050904;28;20214;-53
2023/08/16 04:10:47;;;;;;;2.97;2.87;;;19.80;99.90;;;;;;5051588;28;20194;-53
2023/08/16 04:13:15;;;;;;;3.37;3.13;;;19.80;99.90;;;;;;5050480;28;20210;-53
2023/08/16 04:15:42;;;;;;;2.73;2.63;;;19.80;99.90;;;;;;5050976;28;20263;-53
2023/08/16 04:18:09;;;;;;;2.63;2.43;;;19.80;99.90;;;;;;5038299;28;20202;-53
2023/08/16 04:20:38;;;;;;;2.67;2.20;;;19.80;99.90;;;;;;5051596;28;20197;-53
2023/08/16 04:23:05;;;;;;;3.40;3.20;;;19.80;99.90;;;;;;5051283;28;20586;-53
2023/08/16 04:25:32;;;;;;;2.93;2.83;;;19.80;99.90;;;;;;5051220;28;20229;-53
2023/08/16 04:27:59;;;;;;;3.07;2.87;;;19.80;99.90;;;;;;5049047;28;20218;-53
2023/08/16 04:30:26;;;;;;;2.57;2.37;;;19.80;99.90;;;;;;5051501;28;20193;-53
2023/08/16 04:32:53;;;;;;;3.00;2.90;;;19.80;99.90;;;;;;5051206;28;20267;-53
2023/08/16 04:35:20;;;;;;;2.60;2.43;;;19.80;99.90;;;;;;5051242;28;20225;-53
2023/08/16 04:37:48;;;;;;;2.37;2.27;;;19.80;99.90;;;;;;5050543;28;20197;-53
2023/08/16 04:40:15;;;;;;;3.97;2.67;;;19.80;99.90;;;;;;5049989;28;20201;-53
2023/08/16 04:42:42;;;;;;;2.37;2.17;;;19.90;99.90;;;;;;5051106;28;20194;-53
2023/08/16 04:45:10;;;;;;;2.43;2.33;;;19.90;99.90;;;;;;5050985;28;20226;-53
2023/08/16 04:47:37;;;;;;;2.30;2.23;;;20.10;99.90;;;;;;5050348;28;20279;-52
2023/08/16 04:50:06;;;;;;;2.43;2.23;;;20.10;99.90;;;;;;5050907;28;20221;-53
2023/08/16 04:52:33;;;;;;;2.93;2.73;;;20.20;99.90;;;;;;5049747;28;20240;-53
2023/08/16 04:55:01;;;;;;;3.17;3.00;;;20.20;99.90;;;;;;5054898;28;20212;-53
2023/08/16 04:57:28;;;;;;;2.60;2.50;;;20.20;99.90;;;;;;5048286;28;20224;-53
2023/08/16 04:59:55;;;;;;;2.67;2.57;;;20.30;99.90;;;;;;5053306;28;20672;-53
2023/08/16 05:02:22;;;;;;;5.43;2.37;;;20.30;99.90;;;;;;5049405;28;20210;-53
2023/08/16 05:04:49;;;;;;;2.70;2.60;;;20.30;99.90;;;;;;5045093;28;20272;-53
2023/08/16 05:07:16;;;;;;;3.00;2.80;;;20.40;99.90;;;;;;5039852;28;20214;-52
2023/08/16 05:09:43;;;;;;;3.10;3.00;;;20.50;99.90;;;;;;5045545;28;20268;-53
2023/08/16 05:12:11;;;;;;;3.90;2.90;;;20.50;99.90;;;;;;5033625;28;20194;-53
2023/08/16 05:14:38;;;;;;;3.10;2.77;;;20.60;99.90;;;;;;5041592;28;20272;-53
2023/08/16 05:17:05;;;;;;;3.27;3.07;;;20.70;99.90;;;;;;5051947;28;20201;-52
2023/08/16 05:19:32;;;;;;;2.87;2.33;;;21.10;99.90;;;;;;5043349;28;20796;-53
2023/08/16 05:21:59;;;;;;;3.00;2.80;;;21.80;99.90;;;;;;5043296;28;20746;-53
2023/08/16 05:24:26;;;;;;;2.47;2.30;;;22.60;99.90;;;;;;5033784;28;20230;-53
2023/08/16 05:26:53;;;;;;;2.53;2.40;;;23.40;99.90;;;;;;5038562;28;20223;-53
2023/08/16 05:29:21;;;;;;;2.27;2.17;;;24.20;99.90;;;;;;5035247;28;20202;-53
2023/08/16 05:31:48;;;;;;;2.47;2.23;;;24.60;99.90;;;;;;5042794;28;20668;-53
2023/08/16 05:34:16;;;;;;;2.10;1.90;;;25.30;99.90;;;;;;5052381;28;20275;-53
2023/08/16 05:36:47;;;;;;;2.47;2.30;;;25.90;99.90;;;;;;5046429;28;20285;-53
2023/08/16 05:39:14;;;;;;;2.23;2.20;;;26.10;99.90;;;;;;5044252;28;20252;-53
2023/08/16 05:41:41;;;;;;;2.47;2.37;;;26.50;99.90;;;;;;5034137;28;20194;-52
2023/08/16 05:44:08;;;;;;;4.50;2.00;;;27.00;99.90;;;;;;5033252;28;20864;-53
2023/08/16 05:46:37;;;;;;;3.47;2.95;;;27.40;99.90;;;;;;5034513;28;20249;-53
2023/08/16 05:49:05;;;;;;;2.78;2.13;;;27.80;99.90;;;;;;5047619;28;20252;-52
2023/08/16 05:51:32;;;;;;;2.38;2.28;;;27.60;99.90;;;;;;5039986;28;20195;-53
2023/08/16 05:54:00;;;;;;;2.60;2.50;;;27.90;99.90;;;;;;5036834;28;20242;-53
2023/08/16 05:56:26;;;;;;;2.53;2.10;;;28.40;99.90;;;;;;5034163;28;20325;-53
2023/08/16 05:58:53;;;;;;;2.35;2.10;;;29.10;99.90;;;;;;5035009;28;20245;-53
2023/08/16 06:01:21;;;;;;;2.78;2.63;;;29.40;99.90;;;;;;5033634;28;20202;-52
2023/08/16 06:03:49;;;;;;;2.00;1.65;;;29.60;99.90;;;;;;5033005;28;20218;-53
2023/08/16 06:06:16;;;;;;;2.05;1.85;;;29.90;99.90;;;;;;5064889;22;20225;-51
2023/08/16 06:08:43;;;;;;;1.83;1.83;;;30.20;99.90;;;;;;5045680;28;20213;-51
2023/08/16 06:11:10;;;;;;;2.00;1.85;;;30.40;99.90;;;;;;5033449;28;20252;-51
2023/08/16 06:13:37;;;;;;;1.65;1.65;;;30.80;99.90;;;;;;5033383;28;20304;-52
2023/08/16 06:16:04;;;;;;;2.55;1.98;;;30.80;99.90;;;;;;5025562;28;20292;-51
2023/08/16 06:18:31;;;;;;;2.10;2.00;;;31.10;99.90;;;;;;5031390;28;20195;-52
2023/08/16 06:21:00;;;;;;;3.95;1.75;;;31.20;99.90;;;;;;5031105;28;20203;-51
2023/08/16 06:23:27;;;;;;;1.58;1.48;;;31.70;99.90;;;;;;5029404;28;20255;-51
2023/08/16 06:25:54;;;;;;;2.38;2.15;;;32.00;99.90;;;;;;5013977;28;20245;-51
2023/08/16 06:28:20;;;;;;;2.25;1.77;;;32.10;99.90;;;;;;5031248;28;20229;-52
2023/08/16 06:30:47;;;;;;;2.83;1.73;;;32.30;99.90;;;;;;5030669;28;20567;-52
2023/08/16 06:33:14;;;;;;;1.60;1.50;;;32.70;99.90;;;;;;5030215;28;20199;-51
2023/08/16 06:35:41;;;;;;;1.65;1.60;;;33.00;99.90;;;;;;5015878;28;20605;-52
2023/08/16 06:38:11;;;;;;;2.33;2.13;;;33.20;99.90;;;;;;5024172;28;20198;-53
2023/08/16 06:40:38;;;;;;;2.22;1.92;;;33.00;99.90;;;;;;5030908;28;20215;-52
2023/08/16 06:43:05;;;;;;;3.08;2.33;;;33.10;99.90;;;;;;5029329;28;20207;-52
2023/08/16 06:45:32;;;;;;;2.90;2.70;;;32.80;99.90;;;;;;5025216;28;20990;-51
2023/08/16 06:47:59;;;;;;;3.33;2.75;;;33.10;99.90;;;;;;5019521;28;20219;-51
2023/08/16 06:50:27;;;;;;;3.25;3.10;;;33.20;99.90;;;;;;5028616;28;20594;-51
2023/08/16 06:52:55;;;;;;;3.22;2.97;;;33.20;99.90;;;;;;5026248;28;20226;-51
2023/08/16 06:55:23;;;;;;;2.70;2.60;;;33.00;99.90;;;;;;5029993;28;20850;-51
2023/08/16 06:57:50;;;;;;;3.08;2.88;;;33.30;99.90;;;;;;5029603;28;20195;-52
2023/08/16 07:00:18;;;;;;;3.80;2.80;;;33.40;99.90;;;;;;5028621;28;20528;-51
2023/08/16 07:02:45;;;;;;;3.40;3.10;;;33.60;99.90;;;;;;5025937;28;20611;-51
2023/08/16 07:05:12;;;;;;;3.00;2.80;;;33.60;99.90;;;;;;5029087;28;20257;-56
2023/08/16 07:07:40;;;;;;;2.65;2.55;;;33.60;99.90;;;;;;5026874;28;20297;-57
2023/08/16 07:10:08;;;;;;;3.53;3.22;;;33.90;99.90;;;;;;5029313;28;20194;-59
2023/08/16 07:12:36;;;;;;;2.75;2.55;;;34.20;99.90;;;;;;5029197;28;20205;-60
2023/08/16 07:15:04;;;;;;;2.83;2.50;;;34.60;99.90;;;;;;5014279;28;20208;-52
2023/08/16 07:17:31;;;;;;;2.35;2.17;;;34.70;99.30;;;;;;5017546;28;20206;-52
2023/08/16 07:19:58;;;;;;;1.92;1.83;;;34.80;99.90;;;;;;5029686;28;20203;-51
2023/08/16 07:22:27;;;;;;;1.45;1.45;;;34.80;99.00;;;;;;5024982;28;20202;-51
2023/08/16 07:24:54;;;;;;;2.13;1.80;;;34.80;98.90;;;;;;5029500;28;20328;-51
2023/08/16 07:27:21;;;;;;;2.03;1.85;;;34.90;99.20;;;;;;5028044;28;20219;-52
2023/08/16 07:29:49;;;;;;;2.28;2.17;;;35.10;99.10;;;;;;5030242;28;20287;-51
2023/08/16 07:32:16;;;;;;;3.38;1.77;;;34.70;98.10;;;;;;5030473;28;20286;-51
2023/08/16 07:34:44;;;;;;;4.80;2.08;;;34.50;97.20;;;;;;5030333;28;20773;-51
2023/08/16 07:37:13;;;;;;;2.60;2.40;;;34.60;99.80;;;;;;5028894;28;20301;-51
2023/08/16 07:39:40;;;;;;;2.45;2.25;;;35.10;97.30;;;;;;5028539;28;20203;-51
2023/08/16 07:42:08;;;;;;;1.80;1.65;;;35.00;97.10;;;;;;5018962;28;20340;-51
2023/08/16 07:44:34;;;;;;;1.75;1.75;;;35.10;97.20;;;;;;5023600;28;20628;-52
2023/08/16 07:47:03;;;;;;;1.87;1.73;;;35.10;97.50;;;;;;5027549;28;20652;-51
2023/08/16 07:49:31;;;;;;;3.00;2.55;;;35.10;97.20;;;;;;5025715;28;20202;-51
2023/08/16 07:51:58;;;;;;;2.38;1.70;;;35.10;97.60;;;;;;5029359;28;20205;-51
2023/08/16 07:54:25;;;;;;;2.08;1.98;;;35.30;98.30;;;;;;5021735;28;20261;-51
2023/08/16 07:56:53;;;;;;;1.85;1.73;;;35.40;97.90;;;;;;5026539;28;20684;-51
2023/08/16 07:59:20;;;;;;;5.40;2.30;;;35.50;95.90;;;;;;5029408;28;20206;-52
2023/08/16 08:01:51;;;;;;;2.58;2.47;;;35.40;97.00;;;;;;5020945;28;20566;-51
2023/08/16 08:04:20;;;;;;;2.28;2.28;;;35.20;96.80;;;;;;5029389;28;20198;-51
2023/08/16 08:06:47;;;;;;;1.73;1.70;;;34.90;97.60;;;;;;5021349;28;20222;-51
2023/08/16 08:09:14;;;;;;;3.97;2.40;;;35.00;98.10;;;;;;5027908;28;20310;-53
2023/08/16 08:11:41;;;;;;;3.03;2.83;;;35.20;95.50;;;;;;5020285;28;20254;-52
2023/08/16 08:14:08;;;;;;;2.22;2.22;;;34.90;95.30;;;;;;5027639;28;20633;-51
2023/08/16 08:16:35;;;;;;;3.05;2.83;;;34.90;96.30;;;;;;5025124;28;20273;-52
2023/08/16 08:19:02;;;;;;;3.85;2.63;;;35.30;96.60;;;;;;5029263;28;20198;-52
2023/08/16 08:21:30;;;;;;;2.65;2.53;;;35.70;95.80;;;;;;5029061;28;20202;-52
2023/08/16 08:23:57;;;;;;;3.00;2.90;;;35.90;95.40;;;;;;5028803;28;20194;-52
2023/08/16 08:26:26;;;;;;;2.83;2.65;;;36.40;95.40;;;;;;5029368;28;20766;-51
2023/08/16 08:28:53;;;;;;;3.15;2.95;;;36.40;95.30;;;;;;5029986;28;20253;-52
2023/08/16 08:31:19;;;;;;;3.42;2.60;;;36.30;96.10;;;;;;5030921;28;20579;-52
2023/08/16 08:33:46;;;;;;;2.78;2.65;;;36.50;94.90;;;;;;5025513;28;20704;-52
2023/08/16 08:36:13;;;;;;;2.85;2.60;;;36.80;96.00;;;;;;5028606;28;20276;-52
2023/08/16 08:38:42;;;;;;;3.25;3.08;;;36.50;96.10;;;;;;5028240;28;20656;-51
2023/08/16 08:41:09;;;;;;;5.00;3.15;;;36.40;94.90;;;;;;5022988;28;20210;-52
2023/08/16 08:43:37;;;;;;;3.30;3.10;;;36.60;97.50;;;;;;5030571;28;20260;-52
2023/08/16 08:46:06;;;;;;;3.00;2.80;;;36.60;96.70;;;;;;5029723;28;21973;-52
2023/08/16 08:48:33;;;;;;;3.22;3.13;;;36.60;96.30;;;;;;5030618;28;20608;-52
2023/08/16 08:51:01;;;;;;;2.83;2.75;;;36.30;95.40;;;;;;5030658;28;20203;-51
2023/08/16 08:53:29;;;;;;;3.85;3.53;;;36.20;95.30;;;;;;5030592;28;20206;-53
2023/08/16 08:56:03;;;;;;;3.75;3.35;;;35.90;95.00;;;;;;5029841;28;20280;-53
2023/08/16 08:58:32;;;;;;;3.25;2.97;;;35.50;94.90;;;;;;5030342;28;20281;-51
2023/08/16 09:00:59;;;;;;;3.75;3.55;;;35.60;95.40;;;;;;5022843;28;20202;-53
2023/08/16 09:03:29;;;;;;;3.65;3.45;;;35.20;97.10;;;;;;5025028;28;20198;-51
2023/08/16 09:05:58;;;;;;;4.80;4.28;;;35.40;95.90;;;;;;5027317;28;20230;-51
2023/08/16 09:08:25;;;;;;;3.83;3.47;;;35.70;94.20;;;;;;5022909;28;20268;-51
2023/08/16 09:10:53;;;;;;;4.50;3.65;;;35.30;94.20;;;;;;5028163;28;20207;-51
2023/08/16 09:13:21;;;;;;;3.22;3.13;;;35.30;94.70;;;;;;5028299;28;20240;-52
2023/08/16 09:15:48;;;;;;;3.97;3.78;;;35.40;96.20;;;;;;5027907;28;20217;-52
2023/08/16 09:18:17;;;;;;;3.63;3.50;;;35.40;96.50;;;;;;5023402;28;20722;-52
2023/08/16 09:20:45;;;;;;;3.80;3.60;;;35.10;94.60;;;;;;5025239;28;20281;-51
2023/08/16 09:23:14;;;;;;;4.72;4.25;;;34.50;97.40;;;;;;5027953;28;20669;-52
2023/08/16 09:25:41;;;;;;;3.33;3.22;;;34.70;95.60;;;;;;5027978;28;20297;-51
2023/08/16 09:28:10;;;;;;;4.15;3.60;;;35.00;94.80;;;;;;5027781;28;20296;-51
2023/08/16 09:30:39;;;;;;;4.55;3.17;;;35.30;93.60;;;;;;5028144;28;20292;-51
2023/08/16 09:33:07;;;;;;;3.67;3.38;;;35.40;93.80;;;;;;5026496;28;20210;-52
2023/08/16 09:35:39;;;;;;;3.63;3.33;;;35.70;95.90;;;;;;5027390;28;20215;-52
2023/08/16 09:38:06;;;;;;;3.50;3.30;;;35.50;95.60;;;;;;5025499;28;20199;-52
2023/08/16 09:40:33;;;;;;;4.00;3.90;;;35.50;94.30;;;;;;5031957;28;20190;-52
2023/08/16 09:43:01;;;;;;;4.60;4.20;;;35.50;96.70;;;;;;5031300;28;20256;-51
2023/08/16 09:45:31;;;;;;;4.78;4.65;;;35.70;99.90;;;;;;5031133;28;20424;-51
2023/08/16 09:48:04;;;;;;;5.97;5.57;;;35.80;98.90;;;;;;5031118;28;20761;-52
2023/08/16 09:50:33;;;;;;;7.25;4.97;;;35.60;98.90;;;;;;5031886;28;20209;-52
2023/08/16 09:53:04;;;;;;;5.82;5.53;;;35.00;99.30;;;;;;5031723;28;20194;-51
2023/08/16 09:55:33;;;;;;;5.65;5.38;;;35.20;99.90;;;;;;5031754;28;20246;-53
2023/08/16 09:58:04;;;;;;;5.97;5.50;;;35.20;99.90;;;;;;5031132;28;20190;-51
2023/08/16 10:00:32;;;;;;;5.30;4.57;;;35.40;99.00;;;;;;5031358;28;20643;-51
2023/08/16 10:03:05;;;;;;;5.40;4.95;;;35.10;99.90;;;;;;5031085;28;20199;-52
2023/08/16 10:05:32;;;;;;;7.50;6.85;;;35.70;98.40;;;;;;5028473;28;20218;-52
2023/08/16 10:08:04;;;;;;;6.10;5.65;;;35.40;98.70;;;;;;5025946;28;20322;-51
2023/08/16 10:10:32;;;;;;;4.78;4.50;;;35.20;98.60;;;;;;5028137;28;20293;-53
2023/08/16 10:13:01;;;;;;;5.53;5.22;;;34.60;99.70;;;;;;5030097;28;20222;-51
2023/08/16 10:15:31;;;;;;;6.55;6.03;;;35.10;99.90;;;;;;5026564;28;20233;-51
2023/08/16 10:18:02;;;;;;;5.57;5.18;;;35.40;99.10;;;;;;5031462;28;20264;-52
2023/08/16 10:20:33;;;;;;;5.10;4.80;;;35.20;98.50;;;;;;5028002;28;20238;-52
2023/08/16 10:23:04;;;;;;;5.25;5.00;;;35.60;98.70;;;;;;5012733;28;20278;-52
2023/08/16 10:25:37;;;;;;;6.63;6.13;;;35.90;98.80;;;;;;5027569;28;20333;-51
2023/08/16 10:28:08;;;;;;;7.05;6.47;;;36.10;98.00;;;;;;5031239;28;20194;-52
2023/08/16 10:30:36;;;;;;;5.50;5.30;;;35.80;98.40;;;;;;5031024;28;20281;-51
2023/08/16 10:33:09;;;;;;;5.25;4.85;;;35.30;99.90;;;;;;5029903;28;20198;-51
2023/08/16 10:35:36;;;;;;;5.03;4.68;;;34.90;98.60;;;;;;5028353;28;20372;-52
2023/08/16 10:38:06;;;;;;;6.57;5.82;;;34.70;99.50;;;;;;5031224;28;20252;-51
2023/08/16 10:40:33;;;;;;;6.10;5.65;;;34.60;99.90;;;;;;5026646;28;20433;-53
2023/08/16 10:43:07;;;;;;;6.35;6.05;;;35.00;99.90;;;;;;5030029;28;20349;-59
2023/08/16 10:45:35;;;;;;;6.50;6.13;;;34.90;99.30;;;;;;5029829;28;20638;-62
2023/08/16 10:48:12;;;;;;;6.20;5.78;;;34.20;99.90;;;;;;5030756;28;20241;-64
2023/08/16 10:50:40;;;;;;;6.93;6.07;;;33.90;99.90;;;;;;5029124;28;20397;-63
2023/08/16 10:53:09;;;;;;;6.35;5.88;;;33.70;99.90;;;;;;5030437;28;20636;-63
2023/08/16 10:55:36;;;;;;;7.00;6.50;;;33.60;99.90;;;;;;5021041;28;20226;-61
2023/08/16 10:58:05;;;;;;;7.28;5.97;;;33.00;99.90;;;;;;5030564;28;20218;-64
2023/08/16 11:00:34;;;;;;;7.13;6.55;;;32.70;99.90;;;;;;5030525;28;20199;-63
2023/08/16 11:03:17;;;;;;;6.57;6.22;;;31.70;99.90;;;;;;5030151;28;20255;-62
2023/08/16 11:05:45;;;;;;;6.97;6.57;;;31.50;99.90;;;;;;5029282;28;20309;-62
2023/08/16 11:08:13;;;;;;;7.32;6.72;;;31.40;99.90;;;;;;5030233;28;21002;-66
2023/08/16 11:10:40;;;;;;;5.60;5.20;;;31.30;99.90;;;;;;5029888;28;20202;-64
2023/08/16 11:13:11;;;;;;;6.38;5.97;;;31.30;99.90;;;;;;5015125;28;21091;-65
2023/08/16 11:15:39;;;;;;;7.55;6.50;;;31.40;99.90;;;;;;5019183;28;20233;-62
2023/08/16 11:18:10;;;;;;;6.57;5.78;;;31.30;99.90;;;;;;5030345;28;20190;-62
2023/08/16 11:20:37;;;;;;;5.45;5.25;;;31.40;99.90;;;;;;5030112;28;20194;-64
2023/08/16 11:23:09;;;;;;;5.25;4.95;;;31.10;99.90;;;;;;5030217;28;20190;-64
2023/08/16 11:25:36;;;;;;;6.60;6.05;;;31.00;99.90;;;;;;5025384;28;20232;-63
2023/08/16 11:28:06;;;;;;;6.25;5.55;;;31.10;99.90;;;;;;5027923;28;20253;-66
2023/08/16 11:30:34;;;;;;;6.75;6.30;;;31.00;99.90;;;;;;5029545;28;20201;-62
2023/08/16 11:33:01;;;;;;;5.47;5.15;;;30.80;99.90;;;;;;5026172;28;20794;-61
2023/08/16 11:35:28;;;;;;;6.18;5.88;;;30.50;99.90;;;;;;5029846;28;20307;-61
2023/08/16 11:37:55;;;;;;;6.40;6.00;;;30.20;99.90;;;;;;5015268;28;20203;-61
2023/08/16 11:40:24;;;;;;;5.50;5.10;;;29.90;99.90;;;;;;5029586;28;20190;-63
2023/08/16 11:42:51;;;;;;;6.00;5.35;;;29.80;99.90;;;;;;5024917;28;20199;-62
2023/08/16 11:45:19;;;;;;;5.68;5.30;;;29.60;99.90;;;;;;5025340;28;20310;-61
2023/08/16 11:47:51;;;;;;;5.93;5.53;;;29.70;99.90;;;;;;5025360;28;20261;-61
2023/08/16 11:50:18;;;;;;;4.88;4.60;;;29.80;99.90;;;;;;5029085;28;20639;-60
2023/08/16 11:52:45;;;;;;;4.72;4.43;;;30.00;99.90;;;;;;5020842;28;20201;-59
2023/08/16 11:55:15;;;;;;;5.10;4.65;;;30.20;99.90;;;;;;5029245;28;20296;-60
2023/08/16 11:57:48;;;;;;;4.97;4.07;;;30.30;99.90;;;;;;5029490;28;20641;-61
2023/08/16 12:00:26;;;;;;;5.05;4.75;;;30.40;99.90;;;;;;5029229;28;20218;-57
2023/08/16 12:02:53;;;;;;;4.75;4.55;;;30.30;99.90;;;;;;5021617;28;20217;-58
2023/08/16 12:05:20;;;;;;;4.70;4.50;;;30.30;99.90;;;;;;5023915;28;20238;-58
2023/08/16 12:07:51;;;;;;;5.18;4.63;;;30.30;99.90;;;;;;5023486;28;20655;-57
2023/08/16 12:10:26;;;;;;;4.40;4.00;;;30.20;99.90;;;;;;5010221;28;20238;-55
2023/08/16 12:12:55;;;;;;;5.47;4.47;;;30.30;99.90;;;;;;5026217;28;20277;-54
2023/08/16 12:15:23;;;;;;;3.90;3.80;;;30.30;99.90;;;;;;5028990;28;20264;-54
2023/08/16 12:17:50;;;;;;;4.65;4.32;;;30.20;99.90;;;;;;5028790;28;20286;-54
2023/08/16 12:20:17;;;;;;;4.47;4.15;;;30.30;99.90;;;;;;5027243;28;20202;-54
2023/08/16 12:22:45;;;;;;;7.38;4.13;;;30.20;99.90;;;;;;5022469;28;20256;-54
2023/08/16 12:25:12;;;;;;;5.75;4.68;;;30.30;99.90;;;;;;5025908;28;20218;-54
2023/08/16 12:27:40;;;;;;;7.03;4.78;;;30.40;99.90;;;;;;5028876;28;20199;-55
2023/08/16 12:30:08;;;;;;;4.95;4.65;;;30.40;99.90;;;;;;5017727;28;20246;-54
2023/08/16 12:32:35;;;;;;;5.25;4.85;;;30.30;99.90;;;;;;5019362;28;20202;-54
2023/08/16 12:35:02;;;;;;;4.35;4.18;;;30.40;99.90;;;;;;5025485;28;20260;-54
2023/08/16 12:37:29;;;;;;;5.40;5.05;;;30.50;99.90;;;;;;5019795;28;20289;-54
2023/08/16 12:39:56;;;;;;;4.60;4.38;;;30.60;99.90;;;;;;5010674;28;20276;-54
2023/08/16 12:42:23;;;;;;;4.03;3.92;;;30.70;99.90;;;;;;5016015;28;20206;-54
2023/08/16 12:44:50;;;;;;;4.85;4.47;;;30.60;99.90;;;;;;5029058;28;20190;-54
2023/08/16 12:47:18;;;;;;;4.30;4.05;;;30.70;99.90;;;;;;5028554;28;20199;-54
2023/08/16 12:49:46;;;;;;;4.78;4.57;;;30.70;99.90;;;;;;5026695;28;20213;-54
2023/08/16 12:52:13;;;;;;;4.72;4.43;;;30.80;99.90;;;;;;5027397;28;20260;-54